createdAt,value
2022-10-10T00:01:19.161Z,100.00
2022-10-10T00:03:47.011Z,100.00
2022-10-10T00:06:14.863Z,100.00
2022-10-10T00:08:41.928Z,100.00
2022-10-10T00:11:08.858Z,100.00
2022-10-10T00:13:35.722Z,100.00
2022-10-10T00:16:02.923Z,100.00
2022-10-10T00:18:29.963Z,100.00
2022-10-10T00:20:56.850Z,100.00
2022-10-10T00:23:23.398Z,100.00
2022-10-10T00:25:49.957Z,100.00
2022-10-10T00:28:16.802Z,100.00
2022-10-10T00:30:43.986Z,99.54
2022-10-10T00:33:10.490Z,99.28
2022-10-10T00:35:36.924Z,99.57
2022-10-10T00:38:04.107Z,100.00
2022-10-10T00:40:30.930Z,100.00
2022-10-10T00:42:57.848Z,100.00
2022-10-10T00:45:40.803Z,98.97
2022-10-10T00:48:10.328Z,99.34
2022-10-10T00:50:42.955Z,99.42
2022-10-10T00:53:11.607Z,98.95
2022-10-10T00:55:38.619Z,98.14
2022-10-10T00:58:07.871Z,98.41
2022-10-10T01:00:34.416Z,98.16
2022-10-10T01:03:00.926Z,98.44
2022-10-10T01:05:27.465Z,98.22
2022-10-10T01:07:54.725Z,97.30
2022-10-10T01:10:23.006Z,98.98
2022-10-10T01:13:07.675Z,98.94
2022-10-10T01:15:57.390Z,98.44
2022-10-10T01:18:54.946Z,99.12
2022-10-10T01:21:28.069Z,99.38
2022-10-10T01:24:09.786Z,99.33
2022-10-10T01:27:08.246Z,99.87
2022-10-10T01:29:42.533Z,99.67
2022-10-10T01:32:16.390Z,99.46
2022-10-10T01:35:02.662Z,100.00
2022-10-10T01:37:37.197Z,100.00
2022-10-10T01:40:17.904Z,99.94
2022-10-10T01:42:55.870Z,99.81
2022-10-10T01:45:23.966Z,99.43
2022-10-10T01:47:53.668Z,99.09
2022-10-10T01:50:23.288Z,98.51
2022-10-10T01:53:02.321Z,98.20
2022-10-10T01:55:47.604Z,97.68
2022-10-10T01:58:32.169Z,97.07
2022-10-10T02:01:10.562Z,97.36
2022-10-10T02:03:43.083Z,97.03
2022-10-10T02:06:13.213Z,97.35
2022-10-10T02:08:47.942Z,97.35
2022-10-10T02:11:14.648Z,97.43
2022-10-10T02:13:56.727Z,97.27
2022-10-10T02:16:37.406Z,97.20
2022-10-10T02:19:08.484Z,96.71
2022-10-10T02:21:34.916Z,97.52
2022-10-10T02:24:05.777Z,97.59
2022-10-10T02:26:33.434Z,96.21
2022-10-10T02:29:09.283Z,96.82
2022-10-10T02:31:47.971Z,96.70
2022-10-10T02:34:21.918Z,98.12
2022-10-10T02:36:52.625Z,99.19
2022-10-10T02:39:23.845Z,99.33
2022-10-10T02:41:52.404Z,99.97
2022-10-10T02:44:25.934Z,99.52
2022-10-10T02:46:52.645Z,100.00
2022-10-10T02:49:31.032Z,100.00
2022-10-10T02:51:57.691Z,100.00
2022-10-10T02:54:25.641Z,100.00
2022-10-10T02:56:52.587Z,99.45
2022-10-10T02:59:20.095Z,99.74
2022-10-10T03:01:46.705Z,100.00
2022-10-10T03:04:13.742Z,100.00
2022-10-10T03:06:40.150Z,100.00
2022-10-10T03:09:06.598Z,100.00
2022-10-10T03:11:33.114Z,100.00
2022-10-10T03:13:59.510Z,99.46
2022-10-10T03:16:25.928Z,100.00
2022-10-10T03:18:53.181Z,100.00
2022-10-10T03:21:19.602Z,100.00
2022-10-10T03:23:46.005Z,100.00
2022-10-10T03:26:12.424Z,100.00
2022-10-10T03:28:39.009Z,100.00
2022-10-10T03:31:05.662Z,100.00
2022-10-10T03:33:32.033Z,100.00
2022-10-10T03:35:58.437Z,100.00
2022-10-10T03:38:24.817Z,100.00
2022-10-10T03:40:51.215Z,100.00
2022-10-10T03:43:17.617Z,100.00
2022-10-10T03:45:45.831Z,100.00
2022-10-10T03:48:12.230Z,100.00
2022-10-10T03:50:39.045Z,100.00
2022-10-10T03:53:05.669Z,100.00
2022-10-10T03:55:32.113Z,100.00
2022-10-10T03:57:58.535Z,100.00
2022-10-10T04:00:25.226Z,100.00
2022-10-10T04:02:53.570Z,100.00
2022-10-10T04:05:20.166Z,100.00
2022-10-10T04:07:46.561Z,100.00
2022-10-10T04:10:17.174Z,100.00
2022-10-10T04:12:43.611Z,99.84
2022-10-10T04:15:16.001Z,99.93
2022-10-10T04:17:42.401Z,100.00
2022-10-10T04:20:14.944Z,99.89
2022-10-10T04:22:42.635Z,100.00
2022-10-10T04:25:09.368Z,100.00
2022-10-10T04:27:37.079Z,100.00
2022-10-10T04:30:04.804Z,100.00
2022-10-10T04:32:31.370Z,100.00
2022-10-10T04:34:58.891Z,100.00
2022-10-10T04:37:26.379Z,99.95
2022-10-10T04:39:52.797Z,99.87
2022-10-10T04:42:19.410Z,99.65
2022-10-10T04:44:47.927Z,99.51
2022-10-10T04:47:14.409Z,99.64
2022-10-10T04:49:43.794Z,100.00
2022-10-10T04:52:10.801Z,100.00
2022-10-10T04:54:38.203Z,100.00
2022-10-10T04:57:04.987Z,100.00
2022-10-10T04:59:31.478Z,100.00
2022-10-10T05:02:01.562Z,100.00
2022-10-10T05:04:28.605Z,100.00
2022-10-10T05:06:54.992Z,100.00
2022-10-10T05:09:21.464Z,100.00
2022-10-10T05:11:47.871Z,100.00
2022-10-10T05:14:14.261Z,100.00
2022-10-10T05:16:40.858Z,100.00
2022-10-10T05:19:07.250Z,100.00
2022-10-10T05:21:33.663Z,100.00
2022-10-10T05:24:00.122Z,100.00
2022-10-10T05:26:26.888Z,100.00
2022-10-10T05:28:53.301Z,100.00
2022-10-10T05:31:19.703Z,100.00
2022-10-10T05:33:46.137Z,100.00
2022-10-10T05:36:13.929Z,100.00
2022-10-10T05:38:41.195Z,100.00
2022-10-10T05:41:08.713Z,100.00
2022-10-10T05:43:35.579Z,100.00
2022-10-10T05:46:02.709Z,100.00
2022-10-10T05:48:29.265Z,100.00
2022-10-10T05:50:57.362Z,100.00
2022-10-10T05:53:25.541Z,100.00
2022-10-10T05:55:52.006Z,100.00
2022-10-10T05:58:18.591Z,100.00
2022-10-10T06:00:46.906Z,100.00
2022-10-10T06:03:16.655Z,100.00
2022-10-10T06:05:48.936Z,100.00
2022-10-10T06:08:15.345Z,100.00
2022-10-10T06:10:44.325Z,100.00
2022-10-10T06:13:12.904Z,100.00
2022-10-10T06:15:39.473Z,100.00
2022-10-10T06:18:06.436Z,100.00
2022-10-10T06:20:37.382Z,100.00
2022-10-10T06:23:04.926Z,100.00
2022-10-10T06:25:40.382Z,100.00
2022-10-10T06:28:07.852Z,100.00
2022-10-10T06:30:37.102Z,100.00
2022-10-10T06:33:03.529Z,100.00
2022-10-10T06:35:29.930Z,100.00
2022-10-10T06:37:56.328Z,100.00
2022-10-10T06:40:22.719Z,100.00
2022-10-10T06:42:49.523Z,100.00
2022-10-10T06:45:16.356Z,100.00
2022-10-10T06:47:42.771Z,100.00
2022-10-10T06:50:09.421Z,100.00
2022-10-10T06:52:35.932Z,100.00
2022-10-10T06:55:02.440Z,100.00
2022-10-10T06:57:29.142Z,100.00
2022-10-10T06:59:55.527Z,100.00
2022-10-10T07:02:23.199Z,100.00
2022-10-10T07:04:49.665Z,100.00
2022-10-10T07:07:16.573Z,100.00
2022-10-10T07:09:42.958Z,100.00
2022-10-10T07:12:10.121Z,100.00
2022-10-10T07:14:36.522Z,100.00
2022-10-10T07:17:03.230Z,100.00
2022-10-10T07:19:29.622Z,100.00
2022-10-10T07:21:56.025Z,99.74
2022-10-10T07:24:22.590Z,100.00
2022-10-10T07:26:49.887Z,100.00
2022-10-10T07:29:16.267Z,100.00
2022-10-10T07:31:42.694Z,100.00
2022-10-10T07:34:09.155Z,100.00
2022-10-10T07:36:35.542Z,100.00
2022-10-10T07:39:01.957Z,100.00
2022-10-10T07:41:28.380Z,100.00
2022-10-10T07:43:56.500Z,100.00
2022-10-10T07:46:23.482Z,100.00
2022-10-10T07:48:49.952Z,100.00
2022-10-10T07:51:17.344Z,100.00
2022-10-10T07:53:44.320Z,100.00
2022-10-10T07:56:11.207Z,99.52
2022-10-10T07:58:38.086Z,99.36
2022-10-10T08:01:06.828Z,98.90
2022-10-10T08:03:33.286Z,98.46
2022-10-10T08:06:04.207Z,98.10
2022-10-10T08:08:33.958Z,97.64
2022-10-10T08:11:00.955Z,97.27
2022-10-10T08:13:27.850Z,97.12
2022-10-10T08:15:54.390Z,96.33
2022-10-10T08:18:20.840Z,96.02
2022-10-10T08:20:47.608Z,95.09
2022-10-10T08:23:14.129Z,94.90
2022-10-10T08:25:40.541Z,94.83
2022-10-10T08:28:07.009Z,94.74
2022-10-10T08:30:33.431Z,93.79
2022-10-10T08:32:59.859Z,93.33
2022-10-10T08:35:26.261Z,92.57
2022-10-10T08:37:52.859Z,91.68
2022-10-10T08:40:21.529Z,90.50
2022-10-10T08:42:53.319Z,90.55
2022-10-10T08:45:23.685Z,90.91
2022-10-10T08:48:25.835Z,89.69
2022-10-10T08:50:59.460Z,88.99
2022-10-10T08:53:36.791Z,88.46
2022-10-10T08:56:07.243Z,88.18
2022-10-10T08:58:38.862Z,87.66
2022-10-10T09:01:27.945Z,86.93
2022-10-10T09:04:00.556Z,86.56
2022-10-10T09:07:03.549Z,86.47
2022-10-10T09:09:48.597Z,86.41
2022-10-10T09:12:37.570Z,87.00
2022-10-10T09:15:19.570Z,84.73
2022-10-10T09:18:12.376Z,84.94
2022-10-10T09:20:47.767Z,83.48
2022-10-10T09:23:21.978Z,82.52
2022-10-10T09:25:58.981Z,82.70
2022-10-10T09:28:28.103Z,82.76
2022-10-10T09:30:59.645Z,82.31
2022-10-10T09:33:27.457Z,81.09
2022-10-10T09:35:57.978Z,80.86
2022-10-10T09:39:06.852Z,80.92
2022-10-10T09:41:59.453Z,79.54
2022-10-10T09:44:26.467Z,80.16
2022-10-10T09:46:53.523Z,80.42
2022-10-10T09:49:21.491Z,78.81
2022-10-10T09:51:51.787Z,78.19
2022-10-10T09:54:19.908Z,77.80
2022-10-10T09:56:57.975Z,77.86
2022-10-10T09:59:41.775Z,78.70
2022-10-10T10:02:19.014Z,77.77
2022-10-10T10:04:47.115Z,77.43
2022-10-10T10:07:22.346Z,78.10
2022-10-10T10:09:55.003Z,77.00
2022-10-10T10:12:39.154Z,75.64
2022-10-10T10:15:16.912Z,73.75
2022-10-10T10:17:44.065Z,73.70
2022-10-10T10:20:28.665Z,73.89
2022-10-10T10:22:55.404Z,75.15
2022-10-10T10:25:31.719Z,73.88
2022-10-10T10:28:10.744Z,74.01
2022-10-10T10:30:39.064Z,72.19
2022-10-10T10:33:33.645Z,70.31
2022-10-10T10:36:25.355Z,70.83
2022-10-10T10:39:01.045Z,71.17
2022-10-10T10:41:46.501Z,70.56
2022-10-10T10:44:31.112Z,70.47
2022-10-10T10:47:09.987Z,70.28
2022-10-10T10:49:48.594Z,70.67
2022-10-10T10:52:53.357Z,71.37
2022-10-10T10:55:35.831Z,70.54
2022-10-10T11:01:56.091Z,69.68
2022-10-10T11:05:20.077Z,70.71
2022-10-10T11:08:20.371Z,71.80
2022-10-10T11:11:07.978Z,71.42
2022-10-10T11:13:38.991Z,71.27
2022-10-10T11:19:27.777Z,71.38
2022-10-10T11:22:11.514Z,67.07
2022-10-10T11:25:18.575Z,69.99
2022-10-10T11:28:26.391Z,68.71
2022-10-10T11:30:57.934Z,68.67
2022-10-10T11:33:29.277Z,65.13
2022-10-10T11:36:05.277Z,67.82
2022-10-10T11:38:54.439Z,66.67
2022-10-10T11:41:31.231Z,67.23
2022-10-10T11:44:15.058Z,66.19
2022-10-10T11:47:06.878Z,65.87
2022-10-10T11:50:02.405Z,67.06
2022-10-10T11:52:42.054Z,64.60
2022-10-10T11:55:20.511Z,64.84
2022-10-10T11:58:09.639Z,66.67
2022-10-10T12:00:53.708Z,64.99
2022-10-10T12:03:20.273Z,63.81
2022-10-10T12:06:04.534Z,64.25
2022-10-10T12:08:37.357Z,66.23
2022-10-10T12:11:12.077Z,66.41
2022-10-10T12:13:43.604Z,67.09
2022-10-10T12:16:15.723Z,63.15
2022-10-10T12:19:21.836Z,65.81
2022-10-10T12:21:57.765Z,65.60
2022-10-10T12:24:28.337Z,63.82
2022-10-10T12:26:54.766Z,66.30
2022-10-10T12:29:55.521Z,66.26
2022-10-10T12:32:50.333Z,65.20
2022-10-10T12:35:41.566Z,62.94
2022-10-10T12:38:14.390Z,65.33
2022-10-10T12:41:07.472Z,64.51
2022-10-10T12:43:41.494Z,64.73
2022-10-10T12:46:17.457Z,66.31
2022-10-10T12:48:45.260Z,64.54
2022-10-10T12:51:23.042Z,61.93
2022-10-10T12:53:53.350Z,63.32
2022-10-10T12:56:42.348Z,61.54
2022-10-10T12:59:25.102Z,64.17
2022-10-10T13:02:04.062Z,64.70
2022-10-10T13:04:30.994Z,65.85
2022-10-10T13:07:00.190Z,63.93
2022-10-10T13:09:35.060Z,65.04
2022-10-10T13:12:05.018Z,65.04
2022-10-10T13:14:45.032Z,63.46
2022-10-10T13:17:23.731Z,63.03
2022-10-10T13:19:57.738Z,63.45
2022-10-10T13:22:25.440Z,64.99
2022-10-10T13:24:52.385Z,63.62
2022-10-10T13:27:25.081Z,65.09
2022-10-10T13:29:53.364Z,64.86
2022-10-10T13:32:29.139Z,65.71
2022-10-10T13:34:59.257Z,65.42
2022-10-10T13:37:26.268Z,62.96
2022-10-10T13:39:53.880Z,62.72
2022-10-10T13:42:28.721Z,63.34
2022-10-10T13:44:56.092Z,60.74
2022-10-10T13:48:02.260Z,60.62
2022-10-10T13:50:43.882Z,60.91
2022-10-10T13:53:31.904Z,60.36
2022-10-10T13:56:12.292Z,60.96
2022-10-10T13:58:43.625Z,61.07
2022-10-10T14:01:22.239Z,61.23
2022-10-10T14:03:51.681Z,61.90
2022-10-10T14:06:25.494Z,61.44
2022-10-10T14:08:54.373Z,62.26
2022-10-10T14:11:26.696Z,62.39
2022-10-10T14:14:00.854Z,62.84
2022-10-10T14:16:28.323Z,62.77
2022-10-10T14:19:18.055Z,63.24
2022-10-10T14:21:51.370Z,63.69
2022-10-10T14:24:17.751Z,64.14
2022-10-10T14:26:53.726Z,63.58
2022-10-10T14:29:21.259Z,64.69
2022-10-10T14:31:49.704Z,65.24
2022-10-10T14:34:16.137Z,65.47
2022-10-10T14:36:49.144Z,66.91
2022-10-10T14:39:18.392Z,66.98
2022-10-10T14:41:45.263Z,66.11
2022-10-10T14:44:12.642Z,66.34
2022-10-10T14:46:41.689Z,67.90
2022-10-10T14:49:20.065Z,69.01
2022-10-10T14:51:47.904Z,69.38
2022-10-10T14:54:14.823Z,69.43
2022-10-10T14:57:07.744Z,69.27
2022-10-10T14:59:49.375Z,69.26
2022-10-10T15:02:21.070Z,72.61
2022-10-10T15:04:47.569Z,73.00
2022-10-10T15:07:15.221Z,72.63
2022-10-10T15:10:17.614Z,72.01
2022-10-10T15:12:36.570Z,71.90
2022-10-10T15:15:03.916Z,71.84
2022-10-10T15:17:33.576Z,71.76
2022-10-10T15:20:00.891Z,71.67
2022-10-10T15:22:29.424Z,71.95
2022-10-10T15:24:58.313Z,72.05
2022-10-10T15:27:25.091Z,73.91
2022-10-10T15:29:51.527Z,74.33
2022-10-10T15:32:17.996Z,74.27
2022-10-10T15:34:44.391Z,74.49
2022-10-10T15:37:25.238Z,75.27
2022-10-10T15:39:51.723Z,75.95
2022-10-10T15:42:22.763Z,75.87
2022-10-10T15:44:51.526Z,74.69
2022-10-10T15:47:19.383Z,73.72
2022-10-10T15:49:45.954Z,73.79
2022-10-10T15:52:12.728Z,72.56
2022-10-10T15:54:39.191Z,72.23
2022-10-10T15:57:05.603Z,72.59
2022-10-10T15:59:32.595Z,72.97
2022-10-10T16:01:59.155Z,72.82
2022-10-10T16:04:25.770Z,72.81
2022-10-10T16:06:54.502Z,72.53
2022-10-10T16:09:31.213Z,72.50
2022-10-10T16:11:57.622Z,72.88
2022-10-10T16:14:24.060Z,72.98
2022-10-10T16:16:52.801Z,74.93
2022-10-10T16:19:19.249Z,74.39
2022-10-10T16:21:45.695Z,74.78
2022-10-10T16:24:12.147Z,75.66
2022-10-10T16:26:38.846Z,78.01
2022-10-10T16:29:07.046Z,78.48
2022-10-10T16:31:39.047Z,79.00
2022-10-10T16:34:06.884Z,78.97
2022-10-10T16:36:35.433Z,80.00
2022-10-10T16:39:06.022Z,81.80
2022-10-10T16:41:47.697Z,83.19
2022-10-10T16:44:18.186Z,83.72
2022-10-10T16:46:44.755Z,83.86
2022-10-10T16:49:13.249Z,83.87
2022-10-10T16:51:41.793Z,83.09
2022-10-10T16:54:08.756Z,82.34
2022-10-10T16:56:35.545Z,82.81
2022-10-10T16:59:13.302Z,84.00
2022-10-10T17:01:39.849Z,84.30
2022-10-10T17:04:06.402Z,84.84
2022-10-10T17:06:37.747Z,84.53
2022-10-10T17:09:07.257Z,84.48
2022-10-10T17:11:34.599Z,85.22
2022-10-10T17:14:05.078Z,85.56
2022-10-10T17:17:10.034Z,85.71
2022-10-10T17:19:18.213Z,84.50
2022-10-10T17:21:44.706Z,85.97
2022-10-10T17:24:11.087Z,85.93
2022-10-10T17:26:38.547Z,86.70
2022-10-10T17:29:05.050Z,86.65
2022-10-10T17:31:32.670Z,86.10
2022-10-10T17:33:59.693Z,87.15
2022-10-10T17:36:27.924Z,87.54
2022-10-10T17:39:01.426Z,88.01
2022-10-10T17:41:28.965Z,87.64
2022-10-10T17:44:05.182Z,89.47
2022-10-10T17:46:35.157Z,88.87
2022-10-10T17:49:03.758Z,88.75
2022-10-10T17:51:30.228Z,87.90
2022-10-10T17:53:59.517Z,87.93
2022-10-10T17:56:29.067Z,88.36
2022-10-10T17:58:55.657Z,89.39
2022-10-10T18:01:22.416Z,89.21
2022-10-10T18:03:49.104Z,88.86
2022-10-10T18:06:20.397Z,87.75
2022-10-10T18:08:48.204Z,87.15
2022-10-10T18:11:18.121Z,88.04
2022-10-10T18:13:44.762Z,88.33
2022-10-10T18:16:17.066Z,89.03
2022-10-10T18:18:50.353Z,90.77
2022-10-10T18:21:18.461Z,91.56
2022-10-10T18:23:45.023Z,91.68
2022-10-10T18:26:17.278Z,91.16
2022-10-10T18:28:47.686Z,90.08
2022-10-10T18:31:25.308Z,90.25
2022-10-10T18:33:52.038Z,90.12
2022-10-10T18:36:21.228Z,89.82
2022-10-10T18:38:48.742Z,89.37
2022-10-10T18:41:18.438Z,90.68
2022-10-10T18:43:46.905Z,90.13
2022-10-10T18:46:15.886Z,90.09
2022-10-10T18:48:51.577Z,90.74
2022-10-10T18:51:26.747Z,90.26
2022-10-10T18:53:58.517Z,90.16
2022-10-10T18:56:27.011Z,89.88
2022-10-10T18:59:01.021Z,90.39
2022-10-10T19:01:29.354Z,91.56
2022-10-10T19:03:57.907Z,89.98
2022-10-10T19:06:26.589Z,90.26
2022-10-10T19:08:57.879Z,90.05
2022-10-10T19:11:45.004Z,89.60
2022-10-10T19:14:14.519Z,90.04
2022-10-10T19:16:44.607Z,91.60
2022-10-10T19:19:28.542Z,91.12
2022-10-10T19:21:55.971Z,90.11
2022-10-10T19:24:28.754Z,89.68
2022-10-10T19:26:57.332Z,89.60
2022-10-10T19:29:26.375Z,90.31
2022-10-10T19:31:55.917Z,90.05
2022-10-10T19:34:24.004Z,89.91
2022-10-10T19:36:50.508Z,89.51
2022-10-10T19:39:18.148Z,89.81
2022-10-10T19:41:45.604Z,90.47
2022-10-10T19:44:12.116Z,90.21
2022-10-10T19:46:45.523Z,90.30
2022-10-10T19:49:12.273Z,91.12
2022-10-10T19:51:39.065Z,91.77
2022-10-10T19:54:05.579Z,93.43
2022-10-10T19:56:31.962Z,92.94
2022-10-10T19:59:00.597Z,92.63
2022-10-10T20:01:30.078Z,92.33
2022-10-10T20:03:57.805Z,92.69
2022-10-10T20:06:24.277Z,92.67
2022-10-10T20:08:50.690Z,92.16
2022-10-10T20:11:18.671Z,92.84
2022-10-10T20:13:45.063Z,93.29
2022-10-10T20:16:11.634Z,93.19
2022-10-10T20:18:40.949Z,92.75
2022-10-10T20:21:17.126Z,93.41
2022-10-10T20:23:46.954Z,93.78
2022-10-10T20:26:23.613Z,93.56
2022-10-10T20:28:51.174Z,93.56
2022-10-10T20:31:21.395Z,93.22
2022-10-10T20:33:49.524Z,93.20
2022-10-10T20:36:17.205Z,93.13
2022-10-10T20:38:43.946Z,92.97
2022-10-10T20:41:16.600Z,92.08
2022-10-10T20:43:43.081Z,92.34
2022-10-10T20:46:12.891Z,91.95
2022-10-10T20:48:39.616Z,91.42
2022-10-10T20:51:12.203Z,91.71
2022-10-10T20:53:43.652Z,91.80
2022-10-10T20:56:13.142Z,92.04
2022-10-10T20:58:40.440Z,92.51
2022-10-10T21:01:19.431Z,91.91
2022-10-10T21:03:49.939Z,92.65
2022-10-10T21:06:25.239Z,93.41
2022-10-10T21:08:53.352Z,93.69
2022-10-10T21:11:21.675Z,93.34
2022-10-10T21:13:57.464Z,93.88
2022-10-10T21:16:26.200Z,92.87
2022-10-10T21:18:57.936Z,92.08
2022-10-10T21:21:32.111Z,92.06
2022-10-10T21:23:58.823Z,93.33
2022-10-10T21:26:27.608Z,93.44
2022-10-10T21:28:55.380Z,93.25
2022-10-10T21:31:24.840Z,93.72
2022-10-10T21:33:51.321Z,94.22
2022-10-10T21:36:19.697Z,94.35
2022-10-10T21:38:46.257Z,94.10
2022-10-10T21:41:21.113Z,94.64
2022-10-10T21:43:51.386Z,95.13
2022-10-10T21:46:22.136Z,94.83
2022-10-10T21:48:52.337Z,94.22
2022-10-10T21:51:19.745Z,94.39
2022-10-10T21:53:48.308Z,94.07
2022-10-10T21:56:15.056Z,93.78
2022-10-10T21:58:43.161Z,93.73
2022-10-10T22:01:15.578Z,95.28
2022-10-10T22:03:43.165Z,94.01
2022-10-10T22:06:12.712Z,94.15
2022-10-10T22:08:40.402Z,95.68
2022-10-10T22:11:11.219Z,96.38
2022-10-10T22:13:37.856Z,96.46
2022-10-10T22:16:05.341Z,95.59
2022-10-10T22:18:32.456Z,94.77
2022-10-10T22:21:02.479Z,96.19
2022-10-10T22:23:28.871Z,95.91
2022-10-10T22:25:55.255Z,95.21
2022-10-10T22:28:21.745Z,95.02
2022-10-10T22:30:48.236Z,94.98
2022-10-10T22:33:14.982Z,94.81
2022-10-10T22:35:41.610Z,94.88
2022-10-10T22:38:10.055Z,94.49
2022-10-10T22:40:36.606Z,95.47
2022-10-10T22:43:03.294Z,95.48
2022-10-10T22:45:29.769Z,96.01
2022-10-10T22:47:56.158Z,96.08
2022-10-10T22:50:22.847Z,96.00
2022-10-10T22:52:49.279Z,96.20
2022-10-10T22:55:18.447Z,96.82
2022-10-10T22:57:46.083Z,96.54
2022-10-10T23:00:13.523Z,96.79
2022-10-10T23:02:42.908Z,96.86
2022-10-10T23:05:09.622Z,97.25
2022-10-10T23:07:36.046Z,98.22
2022-10-10T23:10:03.057Z,98.06
2022-10-10T23:12:29.479Z,98.18
2022-10-10T23:14:55.941Z,98.06
2022-10-10T23:17:25.560Z,97.89
2022-10-10T23:19:51.980Z,97.93
2022-10-10T23:22:18.400Z,98.55
2022-10-10T23:24:44.799Z,99.11
2022-10-10T23:27:11.174Z,98.86
2022-10-10T23:29:37.637Z,98.83
2022-10-10T23:32:04.235Z,98.75
2022-10-10T23:34:40.839Z,99.03
2022-10-10T23:37:07.223Z,99.29
2022-10-10T23:39:35.076Z,98.97
2022-10-10T23:42:01.480Z,97.01
2022-10-10T23:44:27.898Z,98.54
2022-10-10T23:46:54.290Z,97.85
2022-10-10T23:49:20.677Z,97.64
2022-10-10T23:51:47.057Z,100.00
2022-10-10T23:54:13.447Z,100.00
2022-10-10T23:56:40.917Z,98.77
2022-10-10T23:59:07.351Z,100.00
